createdAt,value
2022-09-27T00:03:47.469Z,96.13
2022-09-27T00:07:48.893Z,96.21
2022-09-27T00:11:50.820Z,95.50
2022-09-27T00:15:59.263Z,95.32
2022-09-27T00:20:01.002Z,95.29
2022-09-27T00:24:02.667Z,95.32
2022-09-27T00:28:03.999Z,95.25
2022-09-27T00:32:12.165Z,95.19
2022-09-27T00:36:14.133Z,95.07
2022-09-27T00:40:19.454Z,94.65
2022-09-27T00:44:27.186Z,94.92
2022-09-27T00:48:31.640Z,95.15
2022-09-27T00:52:43.622Z,94.78
2022-09-27T00:56:45.398Z,94.78
2022-09-27T01:00:49.754Z,94.96
2022-09-27T01:04:51.715Z,94.70
2022-09-27T01:08:52.996Z,94.68
2022-09-27T01:13:06.613Z,94.61
2022-09-27T01:17:28.168Z,94.63
2022-09-27T01:21:29.622Z,95.16
2022-09-27T01:25:46.410Z,95.13
2022-09-27T01:30:06.524Z,95.55
2022-09-27T01:34:13.920Z,95.22
2022-09-27T01:38:24.309Z,94.88
2022-09-27T01:42:33.396Z,95.39
2022-09-27T01:46:47.256Z,95.16
2022-09-27T01:50:58.233Z,95.58
2022-09-27T01:55:01.349Z,95.29
2022-09-27T01:59:11.472Z,95.57
2022-09-27T02:03:24.551Z,95.45
2022-09-27T02:07:32.968Z,95.31
2022-09-27T02:11:36.144Z,95.03
2022-09-27T02:15:48.202Z,94.96
2022-09-27T02:19:52.708Z,95.41
2022-09-27T02:23:58.059Z,94.98
2022-09-27T02:28:04.128Z,95.08
2022-09-27T02:32:05.476Z,94.70
2022-09-27T02:36:13.377Z,94.82
2022-09-27T02:40:15.053Z,94.39
2022-09-27T02:44:17.452Z,94.73
2022-09-27T02:48:41.809Z,94.29
2022-09-27T02:52:50.034Z,93.74
2022-09-27T02:57:03.169Z,94.00
2022-09-27T03:01:18.322Z,94.36
2022-09-27T03:05:25.181Z,93.92
2022-09-27T03:09:29.065Z,94.69
2022-09-27T03:13:30.645Z,94.40
2022-09-27T03:17:31.936Z,94.44
2022-09-27T03:21:33.544Z,94.81
2022-09-27T03:25:34.833Z,94.97
2022-09-27T03:29:36.361Z,94.81
2022-09-27T03:33:38.129Z,94.49
2022-09-27T03:37:39.896Z,94.57
2022-09-27T03:41:41.673Z,94.93
2022-09-27T03:45:44.893Z,95.26
2022-09-27T03:49:46.610Z,94.17
2022-09-27T03:53:47.956Z,93.97
2022-09-27T03:57:56.341Z,94.13
2022-09-27T04:01:57.702Z,93.83
2022-09-27T04:06:00.439Z,93.68
2022-09-27T04:10:02.005Z,94.37
2022-09-27T04:14:05.200Z,94.23
2022-09-27T04:18:07.033Z,94.09
2022-09-27T04:22:15.371Z,93.92
2022-09-27T04:26:16.649Z,93.89
2022-09-27T04:30:18.217Z,93.99
2022-09-27T04:34:43.193Z,93.83
2022-09-27T04:38:47.981Z,93.97
2022-09-27T04:42:49.845Z,93.94
2022-09-27T04:46:51.405Z,93.41
2022-09-27T04:51:00.492Z,94.05
2022-09-27T04:55:01.759Z,94.42
2022-09-27T04:59:09.903Z,93.84
2022-09-27T05:03:18.298Z,93.32
2022-09-27T05:07:19.887Z,93.61
2022-09-27T05:11:22.334Z,93.79
2022-09-27T05:15:23.791Z,94.11
2022-09-27T05:19:25.273Z,93.95
2022-09-27T05:23:27.759Z,94.10
2022-09-27T05:27:31.005Z,94.20
2022-09-27T05:31:32.405Z,93.61
2022-09-27T05:35:35.696Z,93.49
2022-09-27T05:39:37.476Z,94.23
2022-09-27T05:43:38.745Z,93.85
2022-09-27T05:47:40.015Z,93.84
2022-09-27T05:51:41.344Z,94.22
2022-09-27T05:55:49.318Z,94.37
2022-09-27T05:59:50.757Z,95.13
2022-09-27T06:03:53.436Z,94.83
2022-09-27T06:07:58.929Z,94.85
2022-09-27T06:12:00.252Z,94.59
2022-09-27T06:16:01.957Z,94.05
2022-09-27T06:20:03.720Z,94.05
2022-09-27T06:24:11.320Z,93.91
2022-09-27T06:28:20.410Z,93.39
2022-09-27T06:32:21.706Z,93.81
2022-09-27T06:36:23.129Z,93.84
2022-09-27T06:40:26.209Z,93.82
2022-09-27T06:44:27.731Z,93.34
2022-09-27T06:48:36.545Z,93.03
2022-09-27T06:52:44.411Z,93.44
2022-09-27T06:56:48.954Z,93.86
2022-09-27T07:00:52.090Z,93.94
2022-09-27T07:05:01.397Z,94.10
2022-09-27T07:09:09.368Z,94.31
2022-09-27T07:13:17.503Z,94.08
2022-09-27T07:17:25.379Z,94.46
2022-09-27T07:21:26.812Z,94.41
2022-09-27T07:25:28.289Z,94.27
2022-09-27T07:29:36.472Z,93.34
2022-09-27T07:33:42.361Z,93.22
2022-09-27T07:37:45.333Z,92.48
2022-09-27T07:41:46.708Z,91.58
2022-09-27T07:45:48.174Z,90.43
2022-09-27T07:49:49.836Z,90.54
2022-09-27T07:53:51.273Z,89.84
2022-09-27T07:57:53.634Z,90.30
2022-09-27T08:02:02.508Z,90.18
2022-09-27T08:06:04.327Z,90.51
2022-09-27T08:10:12.392Z,90.69
2022-09-27T08:14:15.028Z,91.04
2022-09-27T08:18:17.731Z,90.27
2022-09-27T08:22:21.124Z,89.57
2022-09-27T08:26:29.412Z,90.08
2022-09-27T08:30:32.323Z,89.22
2022-09-27T08:34:33.810Z,88.10
2022-09-27T08:38:35.101Z,87.76
2022-09-27T08:42:52.908Z,85.56
2022-09-27T08:46:54.164Z,84.34
2022-09-27T08:51:02.501Z,84.15
2022-09-27T08:55:06.288Z,84.77
2022-09-27T08:59:20.441Z,84.54
2022-09-27T09:03:24.673Z,85.34
2022-09-27T09:07:35.112Z,85.35
2022-09-27T09:12:02.053Z,85.53
2022-09-27T09:16:22.511Z,85.75
2022-09-27T09:20:33.269Z,85.20
2022-09-27T09:24:41.731Z,85.02
2022-09-27T09:28:49.062Z,85.20
2022-09-27T09:33:09.228Z,85.82
2022-09-27T09:37:16.532Z,84.09
2022-09-27T09:41:23.710Z,82.50
2022-09-27T09:45:38.773Z,82.81
2022-09-27T09:49:50.414Z,83.37
2022-09-27T09:53:55.093Z,81.79
2022-09-27T09:58:19.882Z,80.38
2022-09-27T10:02:28.551Z,80.89
2022-09-27T10:06:31.060Z,80.30
2022-09-27T10:10:39.472Z,81.24
2022-09-27T10:14:41.317Z,81.33
2022-09-27T10:18:47.581Z,80.51
2022-09-27T10:22:55.454Z,80.36
2022-09-27T10:26:58.497Z,81.41
2022-09-27T10:31:01.720Z,80.66
2022-09-27T10:35:23.881Z,82.71
2022-09-27T10:39:27.486Z,84.01
2022-09-27T10:43:30.536Z,84.12
2022-09-27T10:47:31.965Z,81.92
2022-09-27T10:51:33.716Z,81.61
2022-09-27T10:55:37.257Z,81.36
2022-09-27T10:59:40.404Z,81.32
2022-09-27T11:03:55.124Z,81.03
2022-09-27T11:07:57.957Z,82.39
2022-09-27T11:12:12.461Z,82.38
2022-09-27T11:16:21.494Z,82.31
2022-09-27T11:20:22.872Z,82.06
2022-09-27T11:24:30.409Z,83.71
2022-09-27T11:28:40.928Z,83.04
2022-09-27T11:32:49.790Z,84.73
2022-09-27T11:37:10.356Z,84.78
2022-09-27T11:41:18.042Z,85.69
2022-09-27T11:45:50.481Z,85.93
2022-09-27T11:49:53.055Z,86.18
2022-09-27T11:53:57.357Z,86.43
2022-09-27T11:58:10.445Z,85.96
2022-09-27T12:02:30.363Z,85.06
2022-09-27T12:06:38.698Z,85.43
2022-09-27T12:10:41.828Z,83.84
2022-09-27T12:14:45.664Z,81.20
2022-09-27T12:18:54.633Z,80.81
2022-09-27T12:23:05.598Z,82.22
2022-09-27T12:27:26.375Z,79.67
2022-09-27T12:31:33.634Z,78.72
2022-09-27T12:35:44.587Z,79.07
2022-09-27T12:39:55.713Z,78.99
2022-09-27T12:43:57.055Z,78.73
2022-09-27T12:48:04.936Z,77.19
2022-09-27T12:52:15.593Z,77.66
2022-09-27T12:56:20.120Z,79.14
2022-09-27T13:00:32.418Z,78.77
2022-09-27T13:04:46.003Z,77.36
2022-09-27T13:09:03.722Z,76.57
2022-09-27T13:13:06.901Z,73.45
2022-09-27T13:17:33.819Z,72.43
2022-09-27T13:21:47.497Z,73.59
2022-09-27T13:25:56.290Z,76.02
2022-09-27T13:30:16.211Z,77.13
2022-09-27T13:34:36.109Z,78.20
2022-09-27T13:38:37.373Z,79.47
2022-09-27T13:42:52.633Z,80.67
2022-09-27T13:47:00.264Z,81.44
2022-09-27T13:51:10.058Z,82.41
2022-09-27T13:55:30.704Z,83.26
2022-09-27T13:59:56.597Z,84.55
2022-09-27T14:04:01.201Z,85.62
2022-09-27T14:08:09.652Z,87.14
2022-09-27T14:12:19.191Z,85.70
2022-09-27T14:16:21.322Z,85.11
2022-09-27T14:20:33.072Z,84.07
2022-09-27T14:24:37.464Z,82.73
2022-09-27T14:28:41.417Z,81.65
2022-09-27T14:32:47.780Z,81.84
2022-09-27T14:37:14.803Z,81.16
2022-09-27T14:41:16.273Z,80.83
2022-09-27T14:45:37.484Z,81.62
2022-09-27T14:49:52.596Z,82.06
2022-09-27T14:54:04.685Z,83.58
2022-09-27T14:58:35.701Z,84.87
2022-09-27T15:02:36.925Z,83.89
2022-09-27T15:06:38.739Z,82.51
2022-09-27T15:10:40.710Z,83.56
2022-09-27T15:14:54.090Z,82.47
2022-09-27T15:19:00.718Z,83.24
2022-09-27T15:23:05.661Z,84.17
2022-09-27T15:27:17.993Z,84.23
2022-09-27T15:31:29.099Z,83.22
2022-09-27T15:35:33.183Z,83.42
2022-09-27T15:39:36.556Z,83.86
2022-09-27T15:43:40.103Z,82.87
2022-09-27T15:47:45.829Z,80.70
2022-09-27T15:51:54.745Z,80.57
2022-09-27T15:55:56.027Z,80.03
2022-09-27T15:59:57.302Z,79.61
2022-09-27T16:03:59.014Z,79.96
2022-09-27T16:08:06.698Z,75.89
2022-09-27T16:12:08.924Z,60.32
2022-09-27T16:16:14.468Z,56.46
2022-09-27T16:20:26.372Z,51.41
2022-09-27T16:24:29.093Z,55.55
2022-09-27T16:28:30.373Z,62.34
2022-09-27T16:32:31.661Z,67.14
2022-09-27T16:36:33.105Z,70.83
2022-09-27T16:40:34.396Z,73.78
2022-09-27T16:44:35.957Z,75.89
2022-09-27T16:48:43.740Z,78.69
2022-09-27T16:52:47.474Z,80.35
2022-09-27T16:56:52.189Z,81.80
2022-09-27T17:00:59.178Z,81.86
2022-09-27T17:05:07.870Z,82.01
2022-09-27T17:09:09.165Z,84.06
2022-09-27T17:13:10.857Z,85.17
2022-09-27T17:17:12.169Z,84.78
2022-09-27T17:21:19.157Z,83.37
2022-09-27T17:25:21.121Z,82.79
2022-09-27T17:29:31.709Z,82.56
2022-09-27T17:33:44.379Z,82.07
2022-09-27T17:37:48.805Z,82.77
2022-09-27T17:41:51.451Z,82.60
2022-09-27T17:45:54.912Z,83.55
2022-09-27T17:50:15.032Z,85.05
2022-09-27T17:54:18.631Z,85.23
2022-09-27T17:58:21.380Z,86.93
2022-09-27T18:02:22.789Z,87.16
2022-09-27T18:06:24.682Z,87.40
2022-09-27T18:10:27.305Z,87.78
2022-09-27T18:14:34.713Z,88.27
2022-09-27T18:18:38.460Z,89.78
2022-09-27T18:22:41.256Z,90.43
2022-09-27T18:26:43.732Z,90.16
2022-09-27T18:30:46.542Z,90.60
2022-09-27T18:34:48.154Z,91.06
2022-09-27T18:38:56.882Z,90.94
2022-09-27T18:42:58.394Z,91.16
2022-09-27T18:46:59.688Z,90.92
2022-09-27T18:51:06.082Z,91.04
2022-09-27T18:55:07.512Z,91.65
2022-09-27T18:59:09.480Z,91.81
2022-09-27T19:03:17.308Z,92.36
2022-09-27T19:07:18.648Z,92.30
2022-09-27T19:11:19.929Z,92.02
2022-09-27T19:15:27.875Z,91.70
2022-09-27T19:19:29.134Z,92.34
2022-09-27T19:23:38.952Z,92.14
2022-09-27T19:27:43.080Z,92.70
2022-09-27T19:31:44.853Z,93.07
2022-09-27T19:35:47.080Z,92.71
2022-09-27T19:39:52.246Z,92.93
2022-09-27T19:43:56.742Z,93.66
2022-09-27T19:47:57.979Z,93.85
2022-09-27T19:51:59.617Z,93.81
2022-09-27T19:56:02.216Z,94.32
2022-09-27T20:00:04.051Z,93.71
2022-09-27T20:04:05.329Z,93.74
2022-09-27T20:08:08.037Z,94.09
2022-09-27T20:12:09.385Z,93.69
2022-09-27T20:16:10.917Z,93.65
2022-09-27T20:20:12.365Z,93.40
2022-09-27T20:24:13.761Z,93.63
2022-09-27T20:28:15.121Z,93.35
2022-09-27T20:32:27.141Z,92.99
2022-09-27T20:36:31.687Z,93.59
2022-09-27T20:40:33.028Z,92.95
2022-09-27T20:44:34.324Z,93.57
2022-09-27T20:48:35.637Z,93.58
2022-09-27T20:52:37.974Z,94.25
2022-09-27T20:56:40.893Z,94.04
2022-09-27T21:00:42.363Z,94.06
2022-09-27T21:04:43.628Z,93.85
2022-09-27T21:08:45.028Z,94.19
2022-09-27T21:12:53.093Z,93.54
2022-09-27T21:16:54.557Z,93.80
2022-09-27T21:21:14.466Z,93.92
2022-09-27T21:25:22.766Z,93.98
2022-09-27T21:29:24.314Z,93.82
2022-09-27T21:33:25.628Z,94.35
2022-09-27T21:37:34.057Z,94.95
2022-09-27T21:41:35.356Z,95.21
2022-09-27T21:45:36.720Z,94.85
2022-09-27T21:49:38.073Z,95.60
2022-09-27T21:53:41.570Z,95.99
2022-09-27T21:57:42.820Z,96.18
2022-09-27T22:01:45.233Z,96.25
2022-09-27T22:05:47.878Z,96.99
2022-09-27T22:09:49.641Z,97.23
2022-09-27T22:13:51.238Z,97.57
2022-09-27T22:17:52.505Z,97.08
2022-09-27T22:21:53.920Z,97.49
2022-09-27T22:25:55.205Z,97.55
2022-09-27T22:29:56.461Z,97.45
2022-09-27T22:34:02.095Z,97.04
2022-09-27T22:38:03.398Z,97.32
2022-09-27T22:42:04.827Z,97.43
2022-09-27T22:46:06.317Z,97.35
2022-09-27T22:50:13.841Z,96.94
2022-09-27T22:54:15.076Z,97.28
2022-09-27T22:58:22.797Z,97.15
2022-09-27T23:02:30.856Z,97.96
2022-09-27T23:06:39.834Z,97.89
2022-09-27T23:10:41.504Z,97.56
2022-09-27T23:14:43.008Z,97.69
2022-09-27T23:18:51.661Z,97.04
2022-09-27T23:22:53.886Z,97.09
2022-09-27T23:27:14.016Z,97.16
2022-09-27T23:31:16.858Z,97.68
2022-09-27T23:35:24.820Z,97.06
2022-09-27T23:39:26.905Z,97.07
2022-09-27T23:43:28.296Z,96.72
2022-09-27T23:47:29.544Z,97.02
2022-09-27T23:51:30.837Z,97.02
2022-09-27T23:55:39.128Z,96.95
2022-09-27T23:59:47.002Z,96.39
